Lake Sumner, New Mexico
Current Conditions -  °F | °C
As of 10:56 PM on Monday 20 Oct 2014 (Local Time) from K4MR Reporting Station
Scattered Clouds Scattered Clouds  
Wind Chill: 13°   Ceiling: Unl
Heat Index: 13°   Visibility: 10mi
Dew Point: 11°   Wind: 8mph
Humidity: 90%   Direction: 200°SSW
Pressure: 30.18"   Gusts: NA
Location:  34.3001°N, 104.256°W
Report Text: K4MR 210456Z AUTO 20007KT 10SM SCT180 13/11 A3018 RMK AO2 SLP181 T01260110
Loading
Personal Weather Stations






























Interactive Weather Map
Tropical Storm Tracking
New forecast layout! Learn more

10-Day Weather Forecast

Advertisements
Track Severe Weather on mobile